createdAt,value
2018-12-18T00:00:10.671Z,2.36
2018-12-18T00:01:10.645Z,2.36
2018-12-18T00:02:10.630Z,2.31
2018-12-18T00:03:10.610Z,2.33
2018-12-18T00:04:10.629Z,2.33
2018-12-18T00:05:10.577Z,2.34
2018-12-18T00:06:10.565Z,2.36
2018-12-18T00:07:10.536Z,2.3
2018-12-18T00:08:10.521Z,2.31
2018-12-18T00:09:10.501Z,2.33
2018-12-18T00:10:10.494Z,2.31
2018-12-18T00:11:10.472Z,2.31
2018-12-18T00:12:10.460Z,2.33
2018-12-18T00:13:10.436Z,2.33
2018-12-18T00:14:10.426Z,2.31
2018-12-18T00:15:10.167Z,2.3
2018-12-18T00:16:10.153Z,2.34
2018-12-18T00:17:10.371Z,2.34
2018-12-18T00:18:23.094Z,2.29
2018-12-18T00:19:10.340Z,2.38
2018-12-18T00:20:10.316Z,2.31
2018-12-18T00:21:10.305Z,2.27
2018-12-18T00:22:10.283Z,2.31
2018-12-18T00:23:10.272Z,2.26
2018-12-18T00:24:10.247Z,2.3
2018-12-18T00:25:10.230Z,2.31
2018-12-18T00:26:10.216Z,2.23
2018-12-18T00:27:10.198Z,2.31
2018-12-18T00:28:10.179Z,2.29
2018-12-18T00:29:10.226Z,2.3
2018-12-18T00:30:10.148Z,2.31
2018-12-18T00:31:10.120Z,2.31
2018-12-18T00:32:10.113Z,2.29
2018-12-18T00:33:10.095Z,2.3
2018-12-18T00:34:09.820Z,2.31
2018-12-18T00:35:10.058Z,2.31
2018-12-18T00:36:10.054Z,2.31
2018-12-18T00:37:09.784Z,2.36
2018-12-18T00:38:10.006Z,2.3
2018-12-18T00:39:09.979Z,2.36
2018-12-18T00:40:09.976Z,2.31
2018-12-18T00:41:09.700Z,2.33
2018-12-18T00:42:09.936Z,2.31
2018-12-18T00:43:09.915Z,2.34
2018-12-18T00:44:09.898Z,2.36
2018-12-18T00:45:09.873Z,2.34
2018-12-18T00:46:09.861Z,2.31
2018-12-18T00:47:09.599Z,2.34
2018-12-18T00:48:09.606Z,2.3
2018-12-18T00:49:09.811Z,2.36
2018-12-18T00:50:09.791Z,2.4
2018-12-18T00:51:09.772Z,2.45
2018-12-18T00:52:09.763Z,2.44
2018-12-18T00:53:09.744Z,2.47
2018-12-18T00:54:09.726Z,2.49
2018-12-18T00:55:09.705Z,2.38
2018-12-18T00:56:09.685Z,2.52
2018-12-18T00:57:09.667Z,2.34
2018-12-18T00:58:09.656Z,2.36
2018-12-18T00:59:09.640Z,2.49
2018-12-18T01:00:09.619Z,2.45
2018-12-18T01:01:09.601Z,2.45
2018-12-18T01:02:09.589Z,2.38
2018-12-18T01:03:09.571Z,2.49
2018-12-18T01:04:09.556Z,2.45
2018-12-18T01:05:09.538Z,2.45
2018-12-18T01:06:09.576Z,2.51
2018-12-18T01:07:09.513Z,2.42
2018-12-18T01:08:09.478Z,2.42
2018-12-18T01:09:09.464Z,2.48
2018-12-18T01:10:09.449Z,2.48
2018-12-18T01:11:09.430Z,2.49
2018-12-18T01:12:09.407Z,2.51
2018-12-18T01:13:09.391Z,2.48
2018-12-18T01:14:09.376Z,2.47
2018-12-18T01:15:09.368Z,2.52
2018-12-18T01:16:09.358Z,2.48
2018-12-18T01:17:09.323Z,2.48
2018-12-18T01:18:09.311Z,2.52
2018-12-18T01:19:09.045Z,2.48
2018-12-18T01:20:09.274Z,2.38
2018-12-18T01:21:09.256Z,2.42
2018-12-18T01:22:09.245Z,2.49
2018-12-18T01:23:09.224Z,2.42
2018-12-18T01:24:09.202Z,2.48
2018-12-18T01:25:08.944Z,2.45
2018-12-18T01:26:08.922Z,2.41
2018-12-18T01:27:09.153Z,2.44
2018-12-18T01:28:08.886Z,2.44
2018-12-18T01:29:09.119Z,2.45
2018-12-18T01:30:09.096Z,2.44
2018-12-18T01:31:09.080Z,2.31
2018-12-18T01:32:09.063Z,2.42
2018-12-18T01:33:09.046Z,2.47
2018-12-18T01:34:09.033Z,2.42
2018-12-18T01:35:09.016Z,2.41
2018-12-18T01:36:08.750Z,2.45
2018-12-18T01:37:08.979Z,2.45
2018-12-18T01:38:08.959Z,2.41
2018-12-18T01:39:08.695Z,2.44
2018-12-18T01:40:08.930Z,2.45
2018-12-18T01:41:08.903Z,2.52
2018-12-18T01:42:08.890Z,2.49
2018-12-18T01:43:08.878Z,2.52
2018-12-18T01:44:08.850Z,2.47
2018-12-18T01:45:08.840Z,2.49
2018-12-18T01:46:08.817Z,2.4
2018-12-18T01:47:08.805Z,2.47
2018-12-18T01:48:08.792Z,2.52
2018-12-18T01:49:08.766Z,2.45
2018-12-18T01:50:08.757Z,2.47
2018-12-18T01:51:08.735Z,2.45
2018-12-18T01:52:08.467Z,2.48
2018-12-18T01:53:08.702Z,2.48
2018-12-18T01:54:08.681Z,2.34
2018-12-18T01:55:08.419Z,2.45
2018-12-18T01:56:08.398Z,2.42
2018-12-18T01:57:08.630Z,2.4
2018-12-18T01:58:08.639Z,2.47
2018-12-18T01:59:08.595Z,2.34
2018-12-18T02:00:08.587Z,2.38
2018-12-18T02:01:08.567Z,2.41
2018-12-18T02:02:08.546Z,2.48
2018-12-18T02:03:08.527Z,2.49
2018-12-18T02:04:11.086Z,2.48
2018-12-18T02:05:08.500Z,2.44
2018-12-18T02:06:08.479Z,2.41
2018-12-18T02:07:08.467Z,2.45
2018-12-18T02:08:08.198Z,2.38
2018-12-18T02:09:08.174Z,2.48
2018-12-18T02:10:08.408Z,2.51
2018-12-18T02:11:08.392Z,2.48
2018-12-18T02:12:08.375Z,2.44
2018-12-18T02:13:08.355Z,2.49
2018-12-18T02:14:08.091Z,2.47
2018-12-18T02:15:08.078Z,2.48
2018-12-18T02:16:08.300Z,2.45
2018-12-18T02:17:08.297Z,2.49
2018-12-18T02:18:08.016Z,2.48
2018-12-18T02:19:08.250Z,2.45
2018-12-18T02:20:08.231Z,2.49
2018-12-18T02:21:08.215Z,2.45
2018-12-18T02:22:08.202Z,2.48
2018-12-18T02:23:08.182Z,2.47
2018-12-18T02:24:08.165Z,2.45
2018-12-18T02:25:08.144Z,2.45
2018-12-18T02:26:08.144Z,2.52
2018-12-18T02:27:08.114Z,2.49
2018-12-18T02:28:08.092Z,2.42
2018-12-18T02:29:08.086Z,2.51
2018-12-18T02:30:08.067Z,2.51
2018-12-18T02:31:08.046Z,2.51
2018-12-18T02:32:08.028Z,2.45
2018-12-18T02:33:07.764Z,2.48
2018-12-18T02:34:13.645Z,2.52
2018-12-18T02:35:07.975Z,2.49
2018-12-18T02:36:08.024Z,2.44
2018-12-18T02:37:07.699Z,2.51
2018-12-18T02:38:07.929Z,2.49
2018-12-18T02:39:07.663Z,2.44
2018-12-18T02:40:07.400Z,2.47
2018-12-18T02:41:08.023Z,2.36
2018-12-18T02:42:07.619Z,2.49
2018-12-18T02:43:07.840Z,2.3
2018-12-18T02:44:07.576Z,2.31
2018-12-18T02:45:07.806Z,2.36
2018-12-18T02:46:07.795Z,2.49
2018-12-18T02:47:07.774Z,2.47
2018-12-18T02:48:07.756Z,2.44
2018-12-18T02:49:07.734Z,2.34
2018-12-18T02:50:07.718Z,2.33
2018-12-18T02:51:07.704Z,2.31
2018-12-18T02:52:07.699Z,2.41
2018-12-18T02:53:07.414Z,2.34
2018-12-18T02:54:07.399Z,2.36
2018-12-18T02:55:07.638Z,2.41
2018-12-18T02:56:07.612Z,2.41
2018-12-18T02:57:07.595Z,2.3
2018-12-18T02:58:07.333Z,2.34
2018-12-18T02:59:07.572Z,2.36
2018-12-18T03:00:07.550Z,2.4
2018-12-18T03:01:07.523Z,2.31
2018-12-18T03:02:07.503Z,2.41
2018-12-18T03:03:07.245Z,2.4
2018-12-18T03:04:07.477Z,2.41
2018-12-18T03:05:07.478Z,2.34
2018-12-18T03:06:07.194Z,2.41
2018-12-18T03:07:07.424Z,2.44
2018-12-18T03:08:07.405Z,2.34
2018-12-18T03:09:07.393Z,2.33
2018-12-18T03:10:07.125Z,2.38
2018-12-18T03:11:07.355Z,2.4
2018-12-18T03:12:07.343Z,2.36
2018-12-18T03:13:07.319Z,2.36
2018-12-18T03:14:07.305Z,2.34
2018-12-18T03:15:07.290Z,2.33
2018-12-18T03:16:07.275Z,2.34
2018-12-18T03:17:07.009Z,2.29
2018-12-18T03:18:07.237Z,2.29
2018-12-18T03:19:06.970Z,2.3
2018-12-18T03:20:07.192Z,2.29
2018-12-18T03:21:07.182Z,2.27
2018-12-18T03:22:07.162Z,2.13
2018-12-18T03:23:07.142Z,2.13
2018-12-18T03:24:06.905Z,2.06
2018-12-18T03:25:07.116Z,2.12
2018-12-18T03:26:07.102Z,2.13
2018-12-18T03:27:07.073Z,2.02
2018-12-18T03:28:07.060Z,2.11
2018-12-18T03:29:07.057Z,2.04
2018-12-18T03:30:07.098Z,2.06
2018-12-18T03:31:07.030Z,1.98
2018-12-18T03:32:07.093Z,2.08
2018-12-18T03:33:06.978Z,2.09
2018-12-18T03:34:06.958Z,2.08
2018-12-18T03:35:06.946Z,2.04
2018-12-18T03:36:06.916Z,2.04
2018-12-18T03:37:06.657Z,2.06
2018-12-18T03:38:06.880Z,2.08
2018-12-18T03:39:06.572Z,2.12
2018-12-18T03:40:06.891Z,2.09
2018-12-18T03:41:06.827Z,2.11
2018-12-18T03:42:06.816Z,2.06
2018-12-18T03:43:06.793Z,2.12
2018-12-18T03:44:06.777Z,2.11
2018-12-18T03:45:06.780Z,2.09
2018-12-18T03:46:06.737Z,2.18
2018-12-18T03:47:06.725Z,2.16
2018-12-18T03:48:06.706Z,2.13
2018-12-18T03:49:06.694Z,2.22
2018-12-18T03:50:06.428Z,2.12
2018-12-18T03:51:06.665Z,2.15
2018-12-18T03:52:06.640Z,2.12
2018-12-18T03:53:06.622Z,2.16
2018-12-18T03:54:06.605Z,2.12
2018-12-18T03:55:06.586Z,2.13
2018-12-18T03:56:06.571Z,2.06
2018-12-18T03:57:06.647Z,2.09
2018-12-18T03:58:06.537Z,2.06
2018-12-18T03:59:06.518Z,2.11
2018-12-18T04:00:06.309Z,2.05
2018-12-18T04:01:06.237Z,2.09
2018-12-18T04:02:06.475Z,2.08
2018-12-18T04:03:06.451Z,1.98
2018-12-18T04:04:06.426Z,2.06
2018-12-18T04:05:06.408Z,1.93
2018-12-18T04:06:06.397Z,1.93
2018-12-18T04:07:06.389Z,1.98
2018-12-18T04:08:06.362Z,2.01
2018-12-18T04:09:06.341Z,2.02
2018-12-18T04:10:06.358Z,1.98
2018-12-18T04:11:06.050Z,1.94
2018-12-18T04:12:06.188Z,1.93
2018-12-18T04:13:06.271Z,2.09
2018-12-18T04:14:06.319Z,2.13
2018-12-18T04:15:05.996Z,2.11
2018-12-18T04:16:06.216Z,2.01
2018-12-18T04:17:06.204Z,2.04
2018-12-18T04:18:06.196Z,2.05
2018-12-18T04:19:06.174Z,2.06
2018-12-18T04:20:06.147Z,2.12
2018-12-18T04:21:05.887Z,2.08
2018-12-18T04:22:06.121Z,2.05
2018-12-18T04:23:06.104Z,2.05
2018-12-18T04:24:06.081Z,2.08
2018-12-18T04:25:06.056Z,2.12
2018-12-18T04:26:06.041Z,2.08
2018-12-18T04:27:05.772Z,2.11
2018-12-18T04:28:06.014Z,2.16
2018-12-18T04:29:05.993Z,2.15
2018-12-18T04:30:06.039Z,2.16
2018-12-18T04:31:05.976Z,2.12
2018-12-18T04:32:05.933Z,2.16
2018-12-18T04:33:05.916Z,2.13
2018-12-18T04:34:05.902Z,2.06
2018-12-18T04:35:05.878Z,2.12
2018-12-18T04:36:05.867Z,2.15
2018-12-18T04:37:05.845Z,2.12
2018-12-18T04:38:05.847Z,2.08
2018-12-18T04:39:05.815Z,2.16
2018-12-18T04:40:05.791Z,2.15
2018-12-18T04:41:05.782Z,2.13
2018-12-18T04:42:05.510Z,2.12
2018-12-18T04:43:05.747Z,2.18
2018-12-18T04:44:05.728Z,2.11
2018-12-18T04:45:05.739Z,2.15
2018-12-18T04:46:05.688Z,2.13
2018-12-18T04:47:05.672Z,2.05
2018-12-18T04:48:05.404Z,2.09
2018-12-18T04:49:05.643Z,2.12
2018-12-18T04:50:05.626Z,2.08
2018-12-18T04:51:05.350Z,2.06
2018-12-18T04:52:05.338Z,2.05
2018-12-18T04:53:05.576Z,2.04
2018-12-18T04:54:05.567Z,2.05
2018-12-18T04:55:05.529Z,2.09
2018-12-18T04:56:05.512Z,2.01
2018-12-18T04:57:05.493Z,2.08
2018-12-18T04:58:05.480Z,2.12
2018-12-18T04:59:05.461Z,2.08
2018-12-18T05:00:05.447Z,2.12
2018-12-18T05:01:05.431Z,2.06
2018-12-18T05:02:05.412Z,2.04
2018-12-18T05:03:05.396Z,2.13
2018-12-18T05:04:06.405Z,2.09
2018-12-18T05:05:05.360Z,2.05
2018-12-18T05:06:05.346Z,2.05
2018-12-18T05:07:05.327Z,2.12
2018-12-18T05:08:05.310Z,2.04
2018-12-18T05:09:05.293Z,2.13
2018-12-18T05:10:05.270Z,2.11
2018-12-18T05:11:05.264Z,2.12
2018-12-18T05:12:05.229Z,2.16
2018-12-18T05:13:05.235Z,2.16
2018-12-18T05:14:05.209Z,2.15
2018-12-18T05:15:06.253Z,2.11
2018-12-18T05:16:05.167Z,2.2
2018-12-18T05:17:05.152Z,2.15
2018-12-18T05:18:05.132Z,2.16
2018-12-18T05:19:05.112Z,2.13
2018-12-18T05:20:05.092Z,2.13
2018-12-18T05:21:04.828Z,2.09
2018-12-18T05:22:05.058Z,2.2
2018-12-18T05:23:04.786Z,2.12
2018-12-18T05:24:05.026Z,2.18
2018-12-18T05:25:05.009Z,2.11
2018-12-18T05:26:05.000Z,2.13
2018-12-18T05:27:04.724Z,2.16
2018-12-18T05:28:04.947Z,2.15
2018-12-18T05:29:04.945Z,2.05
2018-12-18T05:30:04.923Z,2.13
2018-12-18T05:31:04.909Z,2.22
2018-12-18T05:32:04.887Z,2.11
2018-12-18T05:33:04.868Z,2.15
2018-12-18T05:34:04.847Z,2.12
2018-12-18T05:35:04.835Z,2.08
2018-12-18T05:36:04.561Z,2.13
2018-12-18T05:37:04.792Z,2.18
2018-12-18T05:38:04.772Z,2.15
2018-12-18T05:39:04.764Z,2.13
2018-12-18T05:40:04.747Z,2.2
2018-12-18T05:41:04.729Z,2.16
2018-12-18T05:42:04.703Z,2.23
2018-12-18T05:43:04.696Z,2.18
2018-12-18T05:44:04.428Z,2.13
2018-12-18T05:45:04.661Z,2.2
2018-12-18T05:46:04.637Z,2.27
2018-12-18T05:47:04.371Z,2.22
2018-12-18T05:48:04.605Z,2.24
2018-12-18T05:49:04.341Z,2.12
2018-12-18T05:50:04.567Z,2.22
2018-12-18T05:51:04.303Z,2.23
2018-12-18T05:52:04.526Z,2.22
2018-12-18T05:53:04.517Z,2.23
2018-12-18T05:54:04.499Z,2.18
2018-12-18T05:55:03.983Z,2.13
2018-12-18T05:56:04.476Z,2.2
2018-12-18T05:57:04.449Z,2.27
2018-12-18T05:58:04.182Z,2.3
2018-12-18T05:59:04.409Z,2.22
2018-12-18T06:00:04.392Z,2.29
2018-12-18T06:01:04.380Z,2.3
2018-12-18T06:02:04.358Z,2.31
2018-12-18T06:03:04.087Z,2.24
2018-12-18T06:04:04.319Z,2.31
2018-12-18T06:05:08.026Z,2.33
2018-12-18T06:06:04.879Z,2.3
2018-12-18T06:07:04.021Z,2.34
2018-12-18T06:08:04.252Z,2.36
2018-12-18T06:09:04.235Z,2.31
2018-12-18T06:10:04.225Z,2.36
2018-12-18T06:11:04.196Z,2.31
2018-12-18T06:12:04.178Z,2.34
2018-12-18T06:13:04.263Z,2.29
2018-12-18T06:14:04.148Z,2.34
2018-12-18T06:15:04.135Z,2.4
2018-12-18T06:16:04.111Z,2.26
2018-12-18T06:17:04.093Z,2.36
2018-12-18T06:18:04.084Z,2.36
2018-12-18T06:19:03.816Z,2.31
2018-12-18T06:20:04.058Z,2.34
2018-12-18T06:21:04.027Z,2.34
2018-12-18T06:22:03.520Z,2.38
2018-12-18T06:23:04.000Z,2.38
2018-12-18T06:24:03.984Z,2.33
2018-12-18T06:25:03.994Z,2.33
2018-12-18T06:26:03.940Z,2.3
2018-12-18T06:27:03.933Z,2.3
2018-12-18T06:28:03.905Z,2.42
2018-12-18T06:29:03.646Z,2.3
2018-12-18T06:30:03.870Z,2.4
2018-12-18T06:31:03.852Z,2.4
2018-12-18T06:32:03.843Z,2.36
2018-12-18T06:33:03.830Z,2.41
2018-12-18T06:34:03.799Z,2.3
2018-12-18T06:35:09.982Z,2.31
2018-12-18T06:36:03.771Z,2.4
2018-12-18T06:37:03.754Z,2.36
2018-12-18T06:38:03.739Z,2.31
2018-12-18T06:39:03.467Z,2.36
2018-12-18T06:40:03.709Z,2.29
2018-12-18T06:41:03.684Z,2.36
2018-12-18T06:42:03.663Z,2.34
2018-12-18T06:43:03.651Z,2.3
2018-12-18T06:44:03.626Z,2.33
2018-12-18T06:45:03.616Z,2.34
2018-12-18T06:46:03.597Z,2.34
2018-12-18T06:47:03.582Z,2.36
2018-12-18T06:48:03.556Z,2.29
2018-12-18T06:49:03.544Z,2.34
2018-12-18T06:50:03.529Z,2.33
2018-12-18T06:51:03.503Z,2.44
2018-12-18T06:52:03.491Z,2.34
2018-12-18T06:53:03.226Z,2.33
2018-12-18T06:54:03.211Z,2.33
2018-12-18T06:55:03.458Z,2.38
2018-12-18T06:56:03.419Z,2.41
2018-12-18T06:57:03.401Z,2.31
2018-12-18T06:58:03.388Z,2.38
2018-12-18T06:59:03.369Z,2.38
2018-12-18T07:00:03.352Z,2.27
2018-12-18T07:01:03.881Z,2.44
2018-12-18T07:02:03.322Z,2.4
2018-12-18T07:03:03.299Z,2.34
2018-12-18T07:04:03.037Z,2.34
2018-12-18T07:05:03.270Z,2.36
2018-12-18T07:06:02.999Z,2.34
2018-12-18T07:07:03.234Z,2.31
2018-12-18T07:08:03.227Z,2.36
2018-12-18T07:09:03.195Z,2.4
2018-12-18T07:10:02.931Z,2.38
2018-12-18T07:11:03.162Z,2.34
2018-12-18T07:12:02.896Z,2.4
2018-12-18T07:13:02.881Z,2.33
2018-12-18T07:14:02.861Z,2.27
2018-12-18T07:15:03.093Z,2.34
2018-12-18T07:16:03.078Z,2.4
2018-12-18T07:17:03.058Z,2.4
2018-12-18T07:18:03.043Z,2.34
2018-12-18T07:19:02.778Z,2.36
2018-12-18T07:20:03.004Z,2.38
2018-12-18T07:21:02.744Z,2.4
2018-12-18T07:22:02.972Z,2.41
2018-12-18T07:23:03.019Z,2.33
2018-12-18T07:24:02.935Z,2.45
2018-12-18T07:25:02.920Z,2.45
2018-12-18T07:26:02.913Z,2.41
2018-12-18T07:27:02.884Z,2.42
2018-12-18T07:28:02.871Z,2.44
2018-12-18T07:29:02.867Z,2.41
2018-12-18T07:30:02.840Z,2.51
2018-12-18T07:31:02.819Z,2.49
2018-12-18T07:32:02.804Z,2.44
2018-12-18T07:33:02.790Z,2.51
2018-12-18T07:34:02.770Z,2.48
2018-12-18T07:35:02.501Z,2.52
2018-12-18T07:36:02.729Z,2.59
2018-12-18T07:37:02.716Z,2.45
2018-12-18T07:38:02.696Z,2.59
2018-12-18T07:39:02.673Z,2.58
2018-12-18T07:40:02.659Z,2.51
2018-12-18T07:41:02.646Z,2.55
2018-12-18T07:42:02.387Z,2.55
2018-12-18T07:43:02.616Z,2.59
2018-12-18T07:44:02.591Z,2.6
2018-12-18T07:45:02.583Z,2.63
2018-12-18T07:46:02.559Z,2.63
2018-12-18T07:47:03.538Z,2.55
2018-12-18T07:48:02.531Z,2.59
2018-12-18T07:49:02.262Z,2.59
2018-12-18T07:50:02.552Z,2.58
2018-12-18T07:51:02.470Z,2.73
2018-12-18T07:52:02.458Z,2.66
2018-12-18T07:53:02.437Z,2.77
2018-12-18T07:54:02.420Z,2.72
2018-12-18T07:55:02.405Z,2.77
2018-12-18T07:56:04.925Z,2.78
2018-12-18T07:57:02.368Z,2.7
2018-12-18T07:58:02.354Z,2.73
2018-12-18T07:59:03.943Z,2.78
2018-12-18T08:00:02.317Z,2.81
2018-12-18T08:01:02.298Z,2.77
2018-12-18T08:02:02.285Z,2.78
2018-12-18T08:03:02.271Z,2.77
2018-12-18T08:04:02.004Z,2.8
2018-12-18T08:05:01.985Z,2.81
2018-12-18T08:06:02.221Z,2.85
2018-12-18T08:07:02.200Z,2.84
2018-12-18T08:08:02.187Z,2.83
2018-12-18T08:09:01.918Z,2.85
2018-12-18T08:10:02.153Z,2.85
2018-12-18T08:11:02.136Z,2.83
2018-12-18T08:12:02.114Z,2.85
2018-12-18T08:13:02.104Z,2.9
2018-12-18T08:14:02.084Z,2.9
2018-12-18T08:15:02.070Z,2.84
2018-12-18T08:16:01.861Z,2.84
2018-12-18T08:17:02.037Z,2.88
2018-12-18T08:18:02.015Z,2.98
2018-12-18T08:19:01.999Z,2.95
2018-12-18T08:20:01.730Z,2.9
2018-12-18T08:21:01.968Z,2.88
2018-12-18T08:22:01.948Z,2.95
2018-12-18T08:23:01.932Z,2.96
2018-12-18T08:24:01.910Z,3.03
2018-12-18T08:25:01.654Z,2.98
2018-12-18T08:26:01.883Z,2.95
2018-12-18T08:27:01.863Z,3.08
2018-12-18T08:28:01.851Z,3.08
2018-12-18T08:29:01.827Z,3.14
2018-12-18T08:30:01.567Z,3.2
2018-12-18T08:31:01.797Z,3.17
2018-12-18T08:32:01.778Z,3.16
2018-12-18T08:33:01.514Z,3.24
2018-12-18T08:34:01.747Z,3.21
2018-12-18T08:35:01.728Z,3.19
2018-12-18T08:36:01.466Z,3.17
2018-12-18T08:37:01.693Z,3.3
2018-12-18T08:38:01.682Z,3.32
2018-12-18T08:39:01.658Z,3.3
2018-12-18T08:40:01.666Z,3.34
2018-12-18T08:41:01.628Z,3.35
2018-12-18T08:42:01.616Z,3.45
2018-12-18T08:43:01.369Z,3.42
2018-12-18T08:44:01.577Z,3.45
2018-12-18T08:45:01.560Z,3.42
2018-12-18T08:46:01.296Z,3.42
2018-12-18T08:47:01.525Z,3.42
2018-12-18T08:48:01.513Z,3.42
2018-12-18T08:49:02.636Z,3.51
2018-12-18T08:50:01.520Z,3.37
2018-12-18T08:51:01.216Z,3.46
2018-12-18T08:52:01.442Z,3.49
2018-12-18T08:53:01.434Z,3.48
2018-12-18T08:54:01.411Z,3.54
2018-12-18T08:55:01.392Z,3.49
2018-12-18T08:56:01.384Z,3.48
2018-12-18T08:57:01.366Z,3.54
2018-12-18T08:58:01.343Z,3.57
2018-12-18T08:59:01.330Z,3.53
2018-12-18T09:00:01.365Z,3.54
2018-12-18T09:01:01.302Z,3.58
2018-12-18T09:02:01.292Z,3.54
2018-12-18T09:03:01.270Z,3.49
2018-12-18T09:04:01.244Z,3.53
2018-12-18T09:05:01.232Z,3.51
2018-12-18T09:06:01.214Z,3.49
2018-12-18T09:07:01.194Z,3.51
2018-12-18T09:08:01.185Z,3.45
2018-12-18T09:09:01.213Z,3.53
2018-12-18T09:10:01.150Z,3.49
2018-12-18T09:11:00.882Z,3.6
2018-12-18T09:12:01.119Z,3.53
2018-12-18T09:13:00.853Z,3.56
2018-12-18T09:14:01.091Z,3.63
2018-12-18T09:15:01.066Z,3.53
2018-12-18T09:16:00.806Z,3.63
2018-12-18T09:17:02.173Z,3.64
2018-12-18T09:18:00.771Z,3.63
2018-12-18T09:19:00.750Z,3.63
2018-12-18T09:20:00.986Z,3.71
2018-12-18T09:21:00.970Z,3.63
2018-12-18T09:22:00.967Z,3.74
2018-12-18T09:23:00.938Z,3.79
2018-12-18T09:24:00.928Z,3.72
2018-12-18T09:25:00.913Z,3.78
2018-12-18T09:26:00.889Z,3.82
2018-12-18T09:27:00.872Z,3.84
2018-12-18T09:28:00.614Z,3.78
2018-12-18T09:29:00.596Z,3.74
2018-12-18T09:30:00.826Z,3.82
2018-12-18T09:31:00.806Z,3.84
2018-12-18T09:32:00.548Z,3.82
2018-12-18T09:33:00.778Z,3.78
2018-12-18T09:34:00.763Z,3.75
2018-12-18T09:35:00.494Z,3.76
2018-12-18T09:36:00.723Z,3.75
2018-12-18T09:37:00.462Z,3.79
2018-12-18T09:38:00.705Z,3.75
2018-12-18T09:39:00.675Z,3.82
2018-12-18T09:40:00.665Z,3.84
2018-12-18T09:41:00.644Z,3.82
2018-12-18T09:42:00.629Z,3.86
2018-12-18T09:43:00.610Z,3.78
2018-12-18T09:44:00.351Z,3.84
2018-12-18T09:45:00.586Z,3.94
2018-12-18T09:46:00.574Z,3.85
2018-12-18T09:47:00.561Z,3.97
2018-12-18T09:48:00.535Z,4.04
2018-12-18T09:49:00.523Z,4.17
2018-12-18T09:50:00.506Z,4.17
2018-12-18T09:51:00.489Z,4.29
2018-12-18T09:52:00.467Z,4.26
2018-12-18T09:52:59.964Z,4.26
2018-12-18T09:54:00.443Z,4.21
2018-12-18T09:55:00.424Z,4.24
2018-12-18T09:56:00.408Z,4.29
2018-12-18T09:57:00.394Z,4.18
2018-12-18T09:58:00.370Z,4.26
2018-12-18T09:59:00.363Z,4.32
2018-12-18T10:00:00.341Z,4.3
2018-12-18T10:01:00.636Z,4.38
2018-12-18T10:02:00.337Z,4.51
2018-12-18T10:03:00.306Z,4.38
2018-12-18T10:04:00.282Z,4.54
2018-12-18T10:05:00.272Z,4.47
2018-12-18T10:06:01.015Z,4.46
2018-12-18T10:07:00.249Z,4.28
2018-12-18T10:07:59.977Z,4.22
2018-12-18T10:09:00.203Z,4.17
2018-12-18T10:10:00.196Z,4.21
2018-12-18T10:11:00.174Z,4.04
2018-12-18T10:12:00.158Z,3.97
2018-12-18T10:12:59.893Z,3.93
2018-12-18T10:13:59.884Z,3.93
2018-12-18T10:15:00.106Z,4
2018-12-18T10:15:59.840Z,3.93
2018-12-18T10:16:59.832Z,3.99
2018-12-18T10:18:00.060Z,4
2018-12-18T10:19:00.044Z,4.03
2018-12-18T10:20:00.031Z,3.99
2018-12-18T10:21:00.013Z,4.03
2018-12-18T10:22:00.003Z,3.96
2018-12-18T10:22:59.982Z,4.11
2018-12-18T10:23:59.720Z,4.11
2018-12-18T10:24:59.956Z,4.08
2018-12-18T10:25:59.937Z,4.1
2018-12-18T10:26:59.924Z,4.08
2018-12-18T10:27:59.907Z,4.11
2018-12-18T10:28:59.892Z,4.15
2018-12-18T10:29:59.871Z,4
2018-12-18T10:30:59.660Z,3.9
2018-12-18T10:31:59.842Z,3.92
2018-12-18T10:32:59.820Z,4.03
2018-12-18T10:33:59.808Z,4.04
2018-12-18T10:34:59.794Z,3.96
2018-12-18T10:36:05.308Z,3.92
2018-12-18T10:36:59.757Z,3.84
2018-12-18T10:37:59.495Z,3.94
2018-12-18T10:38:59.725Z,3.93
2018-12-18T10:39:59.464Z,3.92
2018-12-18T10:40:59.447Z,3.97
2018-12-18T10:41:59.681Z,3.94
2018-12-18T10:42:59.418Z,4.03
2018-12-18T10:43:59.650Z,4.02
2018-12-18T10:44:59.644Z,3.9
2018-12-18T10:45:59.622Z,3.97
2018-12-18T10:46:59.598Z,3.97
2018-12-18T10:47:59.588Z,3.96
2018-12-18T10:48:59.576Z,4.02
2018-12-18T10:49:59.616Z,3.97
2018-12-18T10:50:59.541Z,4.07
2018-12-18T10:51:59.540Z,3.93
2018-12-18T10:52:59.503Z,4.04
2018-12-18T10:53:59.490Z,4.03
2018-12-18T10:54:59.492Z,3.97
2018-12-18T10:55:59.456Z,3.94
2018-12-18T10:56:59.444Z,4.07
2018-12-18T10:57:59.432Z,3.92
2018-12-18T10:58:59.171Z,3.94
2018-12-18T10:59:59.394Z,4
2018-12-18T11:00:59.383Z,3.99
2018-12-18T11:01:59.370Z,3.96
2018-12-18T11:02:59.348Z,4.04
2018-12-18T11:03:59.078Z,3.93
2018-12-18T11:04:59.326Z,3.97
2018-12-18T11:05:59.300Z,4.02
2018-12-18T11:06:59.288Z,4.04
2018-12-18T11:07:59.268Z,4.04
2018-12-18T11:08:59.005Z,4.04
2018-12-18T11:09:59.233Z,4.12
2018-12-18T11:10:59.217Z,4.1
2018-12-18T11:11:59.200Z,4.07
2018-12-18T11:12:59.191Z,3.96
2018-12-18T11:13:58.922Z,4
2018-12-18T11:14:59.166Z,3.89
2018-12-18T11:15:59.141Z,3.86
2018-12-18T11:16:59.122Z,3.82
2018-12-18T11:17:59.158Z,3.78
2018-12-18T11:18:58.843Z,3.78
2018-12-18T11:19:59.076Z,3.71
2018-12-18T11:20:58.815Z,3.81
2018-12-18T11:21:59.041Z,3.76
2018-12-18T11:22:59.027Z,3.75
2018-12-18T11:23:59.013Z,3.76
2018-12-18T11:24:58.755Z,3.76
2018-12-18T11:25:58.729Z,3.67
2018-12-18T11:26:58.965Z,3.67
2018-12-18T11:27:59.014Z,3.79
2018-12-18T11:28:58.936Z,3.78
2018-12-18T11:29:58.915Z,3.78
2018-12-18T11:30:58.902Z,3.72
2018-12-18T11:31:58.880Z,3.74
2018-12-18T11:32:58.873Z,3.76
2018-12-18T11:33:58.601Z,3.81
2018-12-18T11:34:58.839Z,3.75
2018-12-18T11:35:58.824Z,3.75
2018-12-18T11:36:58.809Z,3.82
2018-12-18T11:37:58.789Z,3.74
2018-12-18T11:38:58.767Z,3.72
2018-12-18T11:39:58.760Z,3.74
2018-12-18T11:40:58.737Z,3.84
2018-12-18T11:41:58.719Z,3.76
2018-12-18T11:42:58.703Z,3.69
2018-12-18T11:43:58.694Z,3.67
2018-12-18T11:44:58.675Z,3.74
2018-12-18T11:45:58.659Z,3.67
2018-12-18T11:46:58.399Z,3.72
2018-12-18T11:47:58.623Z,3.69
2018-12-18T11:48:58.363Z,3.64
2018-12-18T11:49:58.592Z,3.67
2018-12-18T11:50:58.323Z,3.72
2018-12-18T11:51:58.559Z,3.75
2018-12-18T11:52:58.548Z,3.71
2018-12-18T11:53:58.534Z,3.69
2018-12-18T11:54:58.512Z,3.69
2018-12-18T11:55:58.493Z,3.64
2018-12-18T11:56:58.487Z,3.74
2018-12-18T11:57:58.469Z,3.69
2018-12-18T11:58:58.441Z,3.71
2018-12-18T11:59:58.185Z,3.69
2018-12-18T12:00:58.174Z,3.64
2018-12-18T12:01:58.399Z,3.66
2018-12-18T12:02:58.133Z,3.74
2018-12-18T12:03:58.373Z,3.57
2018-12-18T12:04:58.348Z,3.69
2018-12-18T12:05:58.334Z,3.57
2018-12-18T12:06:58.066Z,3.72
2018-12-18T12:07:58.299Z,3.61
2018-12-18T12:08:58.279Z,3.66
2018-12-18T12:09:58.276Z,3.61
2018-12-18T12:10:58.252Z,3.66
2018-12-18T12:11:58.261Z,3.67
2018-12-18T12:12:58.234Z,3.71
2018-12-18T12:13:57.952Z,3.76
2018-12-18T12:14:58.191Z,3.69
2018-12-18T12:15:58.172Z,3.66
2018-12-18T12:16:58.306Z,3.69
2018-12-18T12:17:58.143Z,3.63
2018-12-18T12:18:58.124Z,3.66
2018-12-18T12:19:58.108Z,3.6
2018-12-18T12:20:58.095Z,3.53
2018-12-18T12:21:58.074Z,3.57
2018-12-18T12:22:58.061Z,3.6
2018-12-18T12:23:57.812Z,3.51
2018-12-18T12:24:58.026Z,3.49
2018-12-18T12:25:58.012Z,3.56
2018-12-18T12:26:57.998Z,3.45
2018-12-18T12:27:57.970Z,3.49
2018-12-18T12:28:57.965Z,3.57
2018-12-18T12:29:57.947Z,3.53
2018-12-18T12:30:57.675Z,3.48
2018-12-18T12:31:57.415Z,3.48
2018-12-18T12:32:57.649Z,3.51
2018-12-18T12:33:57.873Z,3.43
2018-12-18T12:34:57.859Z,3.48
2018-12-18T12:35:57.852Z,3.51
2018-12-18T12:36:57.832Z,3.46
2018-12-18T12:37:57.814Z,3.43
2018-12-18T12:38:57.805Z,3.42
2018-12-18T12:39:57.787Z,3.42
2018-12-18T12:40:57.778Z,3.46
2018-12-18T12:41:57.500Z,3.46
2018-12-18T12:42:57.735Z,3.48
2018-12-18T12:43:57.720Z,3.45
2018-12-18T12:44:57.698Z,3.43
2018-12-18T12:45:57.686Z,3.37
2018-12-18T12:46:57.678Z,3.35
2018-12-18T12:47:57.645Z,3.21
2018-12-18T12:48:57.639Z,3.2
2018-12-18T12:49:57.613Z,3.2
2018-12-18T12:50:57.600Z,3.23
2018-12-18T12:51:57.089Z,3.29
2018-12-18T12:52:57.565Z,3.23
2018-12-18T12:53:57.549Z,3.23
2018-12-18T12:54:57.544Z,3.23
2018-12-18T12:55:57.520Z,3.23
2018-12-18T12:56:57.502Z,3.19
2018-12-18T12:57:57.486Z,3.09
2018-12-18T12:58:57.469Z,3.13
2018-12-18T12:59:57.456Z,3.21
2018-12-18T13:00:57.440Z,3.2
2018-12-18T13:01:57.432Z,3.13
2018-12-18T13:02:57.406Z,3.09
2018-12-18T13:03:57.392Z,3.06
2018-12-18T13:04:56.874Z,3.09
2018-12-18T13:05:57.356Z,3.03
2018-12-18T13:06:57.342Z,3.11
2018-12-18T13:07:58.716Z,3.02
2018-12-18T13:08:57.343Z,2.95
2018-12-18T13:09:57.050Z,2.96
2018-12-18T13:10:57.271Z,3.02
2018-12-18T13:11:57.314Z,3.05
2018-12-18T13:12:57.238Z,2.96
2018-12-18T13:13:57.220Z,3.03
2018-12-18T13:14:57.207Z,2.93
2018-12-18T13:15:57.193Z,2.87
2018-12-18T13:16:57.172Z,2.99
2018-12-18T13:17:57.152Z,2.84
2018-12-18T13:18:57.146Z,2.96
2018-12-18T13:19:57.124Z,2.9
2018-12-18T13:20:57.114Z,2.9